sensor_id;sensor_type;location;lat;lon;timestamp;P1;durP1;ratioP1;P2;durP2;ratioP2
20084;SDS011;10202;48.474;9.138;2023-03-25T00:01:40;2.90;;;1.20;;
20084;SDS011;10202;48.474;9.138;2023-03-25T00:04:06;1.85;;;1.13;;
20084;SDS011;10202;48.474;9.138;2023-03-25T00:06:32;3.22;;;1.30;;
20084;SDS011;10202;48.474;9.138;2023-03-25T00:09:01;2.75;;;1.10;;
20084;SDS011;10202;48.474;9.138;2023-03-25T00:11:32;6.25;;;1.15;;
20084;SDS011;10202;48.474;9.138;2023-03-25T00:13:57;2.45;;;1.02;;
20084;SDS011;10202;48.474;9.138;2023-03-25T00:16:23;1.75;;;0.77;;
20084;SDS011;10202;48.474;9.138;2023-03-25T00:18:51;2.00;;;0.90;;
20084;SDS011;10202;48.474;9.138;2023-03-25T00:21:17;2.28;;;0.63;;
20084;SDS011;10202;48.474;9.138;2023-03-25T00:23:48;1.70;;;0.63;;
20084;SDS011;10202;48.474;9.138;2023-03-25T00:26:13;1.23;;;0.60;;
20084;SDS011;10202;48.474;9.138;2023-03-25T00:28:41;1.98;;;0.70;;
20084;SDS011;10202;48.474;9.138;2023-03-25T00:31:10;1.10;;;0.70;;
20084;SDS011;10202;48.474;9.138;2023-03-25T00:33:38;5.22;;;0.75;;
20084;SDS011;10202;48.474;9.138;2023-03-25T00:36:05;1.60;;;0.70;;
20084;SDS011;10202;48.474;9.138;2023-03-25T00:38:34;3.80;;;0.70;;
20084;SDS011;10202;48.474;9.138;2023-03-25T00:43:39;2.42;;;0.70;;
20084;SDS011;10202;48.474;9.138;2023-03-25T00:46:07;0.63;;;0.50;;
20084;SDS011;10202;48.474;9.138;2023-03-25T00:48:33;1.48;;;0.70;;
20084;SDS011;10202;48.474;9.138;2023-03-25T00:50:59;2.28;;;0.77;;
20084;SDS011;10202;48.474;9.138;2023-03-25T00:53:34;0.65;;;0.60;;
20084;SDS011;10202;48.474;9.138;2023-03-25T00:56:03;1.42;;;0.60;;
20084;SDS011;10202;48.474;9.138;2023-03-25T00:58:30;0.70;;;0.68;;
20084;SDS011;10202;48.474;9.138;2023-03-25T01:00:58;1.02;;;0.50;;
20084;SDS011;10202;48.474;9.138;2023-03-25T01:03:26;1.30;;;0.70;;
20084;SDS011;10202;48.474;9.138;2023-03-25T01:06:03;2.75;;;0.60;;
20084;SDS011;10202;48.474;9.138;2023-03-25T01:08:45;1.80;;;0.90;;
20084;SDS011;10202;48.474;9.138;2023-03-25T01:11:20;1.48;;;0.82;;
20084;SDS011;10202;48.474;9.138;2023-03-25T01:13:55;1.48;;;0.63;;
20084;SDS011;10202;48.474;9.138;2023-03-25T01:16:24;0.88;;;0.57;;
20084;SDS011;10202;48.474;9.138;2023-03-25T01:18:52;0.75;;;0.50;;
20084;SDS011;10202;48.474;9.138;2023-03-25T01:21:19;1.17;;;0.60;;
20084;SDS011;10202;48.474;9.138;2023-03-25T01:23:47;0.98;;;0.70;;
20084;SDS011;10202;48.474;9.138;2023-03-25T01:26:13;0.98;;;0.65;;
20084;SDS011;10202;48.474;9.138;2023-03-25T01:28:45;1.50;;;0.65;;
20084;SDS011;10202;48.474;9.138;2023-03-25T01:31:12;0.60;;;0.60;;
20084;SDS011;10202;48.474;9.138;2023-03-25T01:33:39;1.02;;;0.70;;
20084;SDS011;10202;48.474;9.138;2023-03-25T01:36:09;1.38;;;0.60;;
20084;SDS011;10202;48.474;9.138;2023-03-25T01:38:39;1.90;;;0.80;;
20084;SDS011;10202;48.474;9.138;2023-03-25T01:41:08;1.05;;;0.70;;
20084;SDS011;10202;48.474;9.138;2023-03-25T01:43:37;1.10;;;0.60;;
20084;SDS011;10202;48.474;9.138;2023-03-25T01:46:02;1.30;;;0.70;;
20084;SDS011;10202;48.474;9.138;2023-03-25T01:48:34;3.20;;;1.08;;
20084;SDS011;10202;48.474;9.138;2023-03-25T01:51:06;0.85;;;0.63;;
20084;SDS011;10202;48.474;9.138;2023-03-25T01:53:38;3.13;;;0.70;;
20084;SDS011;10202;48.474;9.138;2023-03-25T01:56:07;1.30;;;0.70;;
20084;SDS011;10202;48.474;9.138;2023-03-25T01:58:38;1.15;;;0.65;;
20084;SDS011;10202;48.474;9.138;2023-03-25T02:01:04;0.82;;;0.60;;
20084;SDS011;10202;48.474;9.138;2023-03-25T02:03:38;2.28;;;0.70;;
20084;SDS011;10202;48.474;9.138;2023-03-25T02:06:20;2.83;;;0.80;;
20084;SDS011;10202;48.474;9.138;2023-03-25T02:08:55;1.90;;;0.70;;
20084;SDS011;10202;48.474;9.138;2023-03-25T02:11:26;0.93;;;0.70;;
20084;SDS011;10202;48.474;9.138;2023-03-25T02:13:56;1.80;;;0.68;;
20084;SDS011;10202;48.474;9.138;2023-03-25T02:16:33;0.98;;;0.60;;
20084;SDS011;10202;48.474;9.138;2023-03-25T02:40:30;1.70;;;0.68;;
20084;SDS011;10202;48.474;9.138;2023-03-25T02:43:03;2.38;;;0.90;;
20084;SDS011;10202;48.474;9.138;2023-03-25T02:45:44;2.97;;;0.60;;
20084;SDS011;10202;48.474;9.138;2023-03-25T02:48:17;2.17;;;0.60;;
20084;SDS011;10202;48.474;9.138;2023-03-25T02:51:39;4.47;;;1.08;;
20084;SDS011;10202;48.474;9.138;2023-03-25T02:54:08;1.20;;;0.60;;
20084;SDS011;10202;48.474;9.138;2023-03-25T02:56:40;0.95;;;0.50;;
20084;SDS011;10202;48.474;9.138;2023-03-25T02:59:13;1.73;;;0.50;;
20084;SDS011;10202;48.474;9.138;2023-03-25T03:01:45;1.50;;;0.50;;
20084;SDS011;10202;48.474;9.138;2023-03-25T03:04:18;2.72;;;0.73;;
20084;SDS011;10202;48.474;9.138;2023-03-25T03:06:43;1.48;;;0.65;;
20084;SDS011;10202;48.474;9.138;2023-03-25T03:11:57;3.10;;;0.43;;
20084;SDS011;10202;48.474;9.138;2023-03-25T03:23:19;1.98;;;0.60;;
20084;SDS011;10202;48.474;9.138;2023-03-25T03:28:33;1.27;;;0.60;;
20084;SDS011;10202;48.474;9.138;2023-03-25T03:31:17;1.15;;;0.60;;
20084;SDS011;10202;48.474;9.138;2023-03-25T03:33:51;0.85;;;0.50;;
20084;SDS011;10202;48.474;9.138;2023-03-25T03:36:29;2.67;;;0.80;;
20084;SDS011;10202;48.474;9.138;2023-03-25T03:39:10;2.47;;;0.60;;
20084;SDS011;10202;48.474;9.138;2023-03-25T03:41:58;0.50;;;0.50;;
20084;SDS011;10202;48.474;9.138;2023-03-25T03:44:33;1.17;;;0.60;;
20084;SDS011;10202;48.474;9.138;2023-03-25T03:47:08;0.80;;;0.70;;
20084;SDS011;10202;48.474;9.138;2023-03-25T03:49:46;0.70;;;0.60;;
20084;SDS011;10202;48.474;9.138;2023-03-25T03:52:22;1.42;;;0.60;;
20084;SDS011;10202;48.474;9.138;2023-03-25T03:54:54;1.05;;;0.50;;
20084;SDS011;10202;48.474;9.138;2023-03-25T03:57:29;1.75;;;0.60;;
20084;SDS011;10202;48.474;9.138;2023-03-25T04:02:41;2.53;;;0.80;;
20084;SDS011;10202;48.474;9.138;2023-03-25T04:05:13;3.10;;;0.60;;
20084;SDS011;10202;48.474;9.138;2023-03-25T04:07:46;0.93;;;0.60;;
20084;SDS011;10202;48.474;9.138;2023-03-25T04:10:36;4.07;;;0.98;;
20084;SDS011;10202;48.474;9.138;2023-03-25T04:13:08;2.85;;;1.00;;
20084;SDS011;10202;48.474;9.138;2023-03-25T04:15:38;2.03;;;0.77;;
20084;SDS011;10202;48.474;9.138;2023-03-25T04:18:09;1.25;;;0.70;;
20084;SDS011;10202;48.474;9.138;2023-03-25T04:20:38;0.73;;;0.60;;
20084;SDS011;10202;48.474;9.138;2023-03-25T04:23:09;3.40;;;1.05;;
20084;SDS011;10202;48.474;9.138;2023-03-25T04:25:47;3.00;;;0.90;;
20084;SDS011;10202;48.474;9.138;2023-03-25T04:28:21;1.65;;;0.70;;
20084;SDS011;10202;48.474;9.138;2023-03-25T04:30:52;1.85;;;0.60;;
20084;SDS011;10202;48.474;9.138;2023-03-25T04:33:20;1.77;;;0.70;;
20084;SDS011;10202;48.474;9.138;2023-03-25T04:35:47;1.13;;;0.70;;
20084;SDS011;10202;48.474;9.138;2023-03-25T04:38:17;2.90;;;1.00;;
20084;SDS011;10202;48.474;9.138;2023-03-25T04:40:46;2.78;;;1.05;;
20084;SDS011;10202;48.474;9.138;2023-03-25T04:43:14;0.60;;;0.60;;
20084;SDS011;10202;48.474;9.138;2023-03-25T04:45:43;2.80;;;0.95;;
20084;SDS011;10202;48.474;9.138;2023-03-25T04:48:25;3.42;;;0.90;;
20084;SDS011;10202;48.474;9.138;2023-03-25T04:50:58;0.98;;;0.55;;
20084;SDS011;10202;48.474;9.138;2023-03-25T04:53:26;3.65;;;0.82;;
20084;SDS011;10202;48.474;9.138;2023-03-25T04:55:55;3.90;;;0.95;;
20084;SDS011;10202;48.474;9.138;2023-03-25T04:58:23;5.32;;;1.00;;
20084;SDS011;10202;48.474;9.138;2023-03-25T05:00:51;1.63;;;0.80;;
20084;SDS011;10202;48.474;9.138;2023-03-25T05:03:21;2.30;;;0.95;;
20084;SDS011;10202;48.474;9.138;2023-03-25T05:05:51;3.03;;;0.77;;
20084;SDS011;10202;48.474;9.138;2023-03-25T05:08:20;1.83;;;0.88;;
20084;SDS011;10202;48.474;9.138;2023-03-25T05:10:50;2.67;;;0.90;;
20084;SDS011;10202;48.474;9.138;2023-03-25T05:13:20;3.22;;;0.93;;
20084;SDS011;10202;48.474;9.138;2023-03-25T05:15:51;2.45;;;0.70;;
20084;SDS011;10202;48.474;9.138;2023-03-25T05:18:18;1.83;;;0.70;;
20084;SDS011;10202;48.474;9.138;2023-03-25T05:20:45;6.75;;;1.40;;
20084;SDS011;10202;48.474;9.138;2023-03-25T05:23:15;2.05;;;0.80;;
20084;SDS011;10202;48.474;9.138;2023-03-25T05:25:42;3.55;;;0.80;;
20084;SDS011;10202;48.474;9.138;2023-03-25T05:28:18;2.92;;;0.90;;
20084;SDS011;10202;48.474;9.138;2023-03-25T05:30:46;2.13;;;0.70;;
20084;SDS011;10202;48.474;9.138;2023-03-25T05:33:16;1.88;;;0.68;;
20084;SDS011;10202;48.474;9.138;2023-03-25T05:35:43;2.17;;;0.80;;
20084;SDS011;10202;48.474;9.138;2023-03-25T05:38:12;3.10;;;0.75;;
20084;SDS011;10202;48.474;9.138;2023-03-25T05:40:46;2.88;;;1.00;;
20084;SDS011;10202;48.474;9.138;2023-03-25T05:43:13;4.13;;;1.38;;
20084;SDS011;10202;48.474;9.138;2023-03-25T05:45:42;1.73;;;0.70;;
20084;SDS011;10202;48.474;9.138;2023-03-25T05:48:11;2.83;;;0.70;;
20084;SDS011;10202;48.474;9.138;2023-03-25T05:50:38;2.45;;;0.80;;
20084;SDS011;10202;48.474;9.138;2023-03-25T05:53:11;2.72;;;0.77;;
20084;SDS011;10202;48.474;9.138;2023-03-25T05:55:41;3.22;;;0.73;;
20084;SDS011;10202;48.474;9.138;2023-03-25T05:58:08;2.10;;;0.80;;
20084;SDS011;10202;48.474;9.138;2023-03-25T06:00:36;4.05;;;0.98;;
20084;SDS011;10202;48.474;9.138;2023-03-25T06:03:05;1.35;;;0.70;;
20084;SDS011;10202;48.474;9.138;2023-03-25T06:05:33;2.47;;;0.73;;
20084;SDS011;10202;48.474;9.138;2023-03-25T06:08:04;1.42;;;0.70;;
20084;SDS011;10202;48.474;9.138;2023-03-25T06:10:34;7.13;;;1.35;;
20084;SDS011;10202;48.474;9.138;2023-03-25T06:13:00;4.22;;;1.15;;
20084;SDS011;10202;48.474;9.138;2023-03-25T06:15:28;4.78;;;1.23;;
20084;SDS011;10202;48.474;9.138;2023-03-25T06:17:58;1.88;;;1.02;;
20084;SDS011;10202;48.474;9.138;2023-03-25T06:20:24;5.70;;;1.30;;
20084;SDS011;10202;48.474;9.138;2023-03-25T06:22:53;4.25;;;1.38;;
20084;SDS011;10202;48.474;9.138;2023-03-25T06:25:21;2.08;;;0.98;;
20084;SDS011;10202;48.474;9.138;2023-03-25T06:27:48;2.20;;;0.90;;
20084;SDS011;10202;48.474;9.138;2023-03-25T06:30:17;4.18;;;1.00;;
20084;SDS011;10202;48.474;9.138;2023-03-25T06:32:47;2.28;;;0.80;;
20084;SDS011;10202;48.474;9.138;2023-03-25T06:35:17;3.38;;;1.15;;
20084;SDS011;10202;48.474;9.138;2023-03-25T06:37:44;2.00;;;0.90;;
20084;SDS011;10202;48.474;9.138;2023-03-25T06:40:20;2.15;;;0.80;;
20084;SDS011;10202;48.474;9.138;2023-03-25T06:42:49;2.58;;;0.90;;
20084;SDS011;10202;48.474;9.138;2023-03-25T06:45:33;3.72;;;0.77;;
20084;SDS011;10202;48.474;9.138;2023-03-25T06:48:10;2.35;;;0.82;;
20084;SDS011;10202;48.474;9.138;2023-03-25T06:50:39;1.90;;;0.70;;
20084;SDS011;10202;48.474;9.138;2023-03-25T06:53:13;0.77;;;0.75;;
20084;SDS011;10202;48.474;9.138;2023-03-25T06:55:41;2.15;;;1.00;;
20084;SDS011;10202;48.474;9.138;2023-03-25T06:58:08;2.30;;;0.90;;
20084;SDS011;10202;48.474;9.138;2023-03-25T07:00:37;4.05;;;1.00;;
20084;SDS011;10202;48.474;9.138;2023-03-25T07:03:03;1.77;;;0.80;;
20084;SDS011;10202;48.474;9.138;2023-03-25T07:05:29;2.67;;;1.00;;
20084;SDS011;10202;48.474;9.138;2023-03-25T07:07:57;3.90;;;1.02;;
20084;SDS011;10202;48.474;9.138;2023-03-25T07:10:25;1.60;;;0.70;;
20084;SDS011;10202;48.474;9.138;2023-03-25T07:12:56;2.10;;;0.90;;
20084;SDS011;10202;48.474;9.138;2023-03-25T07:15:22;1.95;;;0.70;;
20084;SDS011;10202;48.474;9.138;2023-03-25T07:17:54;1.23;;;0.80;;
20084;SDS011;10202;48.474;9.138;2023-03-25T07:20:22;1.15;;;0.93;;
20084;SDS011;10202;48.474;9.138;2023-03-25T07:22:55;1.42;;;0.65;;
20084;SDS011;10202;48.474;9.138;2023-03-25T07:25:23;1.42;;;0.73;;
20084;SDS011;10202;48.474;9.138;2023-03-25T07:27:51;4.85;;;0.80;;
20084;SDS011;10202;48.474;9.138;2023-03-25T07:30:19;1.58;;;0.65;;
20084;SDS011;10202;48.474;9.138;2023-03-25T07:32:44;1.33;;;0.80;;
20084;SDS011;10202;48.474;9.138;2023-03-25T07:35:10;0.93;;;0.57;;
20084;SDS011;10202;48.474;9.138;2023-03-25T07:37:40;1.77;;;0.63;;
20084;SDS011;10202;48.474;9.138;2023-03-25T07:40:06;0.98;;;0.60;;
20084;SDS011;10202;48.474;9.138;2023-03-25T07:42:34;0.98;;;0.63;;
20084;SDS011;10202;48.474;9.138;2023-03-25T07:45:33;0.60;;;0.50;;
20084;SDS011;10202;48.474;9.138;2023-03-25T07:48:01;1.02;;;0.57;;
20084;SDS011;10202;48.474;9.138;2023-03-25T07:50:27;1.17;;;0.80;;
20084;SDS011;10202;48.474;9.138;2023-03-25T07:52:56;2.40;;;0.63;;
20084;SDS011;10202;48.474;9.138;2023-03-25T07:55:24;1.00;;;0.63;;
20084;SDS011;10202;48.474;9.138;2023-03-25T07:57:57;2.08;;;0.60;;
20084;SDS011;10202;48.474;9.138;2023-03-25T08:00:25;0.65;;;0.50;;
20084;SDS011;10202;48.474;9.138;2023-03-25T08:02:53;0.82;;;0.70;;
20084;SDS011;10202;48.474;9.138;2023-03-25T08:05:26;0.80;;;0.60;;
20084;SDS011;10202;48.474;9.138;2023-03-25T08:07:52;0.82;;;0.50;;
20084;SDS011;10202;48.474;9.138;2023-03-25T08:10:29;2.22;;;0.50;;
20084;SDS011;10202;48.474;9.138;2023-03-25T08:12:57;1.55;;;0.68;;
20084;SDS011;10202;48.474;9.138;2023-03-25T08:15:23;0.77;;;0.60;;
20084;SDS011;10202;48.474;9.138;2023-03-25T08:17:56;1.05;;;0.50;;
20084;SDS011;10202;48.474;9.138;2023-03-25T08:20:30;2.28;;;0.60;;
20084;SDS011;10202;48.474;9.138;2023-03-25T08:22:55;0.50;;;0.50;;
20084;SDS011;10202;48.474;9.138;2023-03-25T08:25:23;2.45;;;0.63;;
20084;SDS011;10202;48.474;9.138;2023-03-25T08:27:52;0.77;;;0.50;;
20084;SDS011;10202;48.474;9.138;2023-03-25T08:30:20;1.20;;;0.50;;
20084;SDS011;10202;48.474;9.138;2023-03-25T08:32:50;0.75;;;0.50;;
20084;SDS011;10202;48.474;9.138;2023-03-25T08:35:23;0.90;;;0.68;;
20084;SDS011;10202;48.474;9.138;2023-03-25T08:37:56;1.35;;;0.60;;
20084;SDS011;10202;48.474;9.138;2023-03-25T08:40:25;2.13;;;0.57;;
20084;SDS011;10202;48.474;9.138;2023-03-25T08:42:55;1.70;;;0.60;;
20084;SDS011;10202;48.474;9.138;2023-03-25T08:45:21;3.88;;;0.50;;
20084;SDS011;10202;48.474;9.138;2023-03-25T08:47:47;0.68;;;0.50;;
20084;SDS011;10202;48.474;9.138;2023-03-25T08:50:12;1.30;;;0.68;;
20084;SDS011;10202;48.474;9.138;2023-03-25T08:52:38;0.80;;;0.50;;
20084;SDS011;10202;48.474;9.138;2023-03-25T08:55:05;1.35;;;0.65;;
20084;SDS011;10202;48.474;9.138;2023-03-25T08:57:33;1.80;;;0.80;;
20084;SDS011;10202;48.474;9.138;2023-03-25T09:00:03;2.38;;;1.10;;
20084;SDS011;10202;48.474;9.138;2023-03-25T09:02:43;2.67;;;1.10;;
20084;SDS011;10202;48.474;9.138;2023-03-25T09:05:09;2.65;;;0.80;;
20084;SDS011;10202;48.474;9.138;2023-03-25T09:07:36;1.70;;;0.70;;
20084;SDS011;10202;48.474;9.138;2023-03-25T09:10:06;1.80;;;0.70;;
20084;SDS011;10202;48.474;9.138;2023-03-25T09:12:39;0.50;;;0.50;;
20084;SDS011;10202;48.474;9.138;2023-03-25T09:15:08;1.42;;;0.70;;
20084;SDS011;10202;48.474;9.138;2023-03-25T09:17:40;2.50;;;0.82;;
20084;SDS011;10202;48.474;9.138;2023-03-25T09:20:09;2.08;;;0.77;;
20084;SDS011;10202;48.474;9.138;2023-03-25T09:22:38;1.40;;;0.65;;
20084;SDS011;10202;48.474;9.138;2023-03-25T09:25:04;1.95;;;0.70;;
20084;SDS011;10202;48.474;9.138;2023-03-25T09:27:33;2.33;;;0.85;;
20084;SDS011;10202;48.474;9.138;2023-03-25T09:30:02;1.30;;;0.60;;
20084;SDS011;10202;48.474;9.138;2023-03-25T09:32:31;1.13;;;0.50;;
20084;SDS011;10202;48.474;9.138;2023-03-25T09:34:57;1.40;;;0.57;;
20084;SDS011;10202;48.474;9.138;2023-03-25T09:37:25;0.90;;;0.55;;
20084;SDS011;10202;48.474;9.138;2023-03-25T09:39:56;0.70;;;0.60;;
20084;SDS011;10202;48.474;9.138;2023-03-25T09:45:31;1.58;;;0.60;;
20084;SDS011;10202;48.474;9.138;2023-03-25T09:51:08;1.65;;;0.80;;
20084;SDS011;10202;48.474;9.138;2023-03-25T09:54:07;2.53;;;0.70;;
20084;SDS011;10202;48.474;9.138;2023-03-25T09:56:47;4.38;;;0.45;;
20084;SDS011;10202;48.474;9.138;2023-03-25T09:59:19;0.57;;;0.57;;
20084;SDS011;10202;48.474;9.138;2023-03-25T10:01:51;0.60;;;0.50;;
20084;SDS011;10202;48.474;9.138;2023-03-25T10:23:21;2.90;;;0.90;;
20084;SDS011;10202;48.474;9.138;2023-03-25T10:29:13;1.52;;;0.90;;
20084;SDS011;10202;48.474;9.138;2023-03-25T10:31:53;1.55;;;0.70;;
20084;SDS011;10202;48.474;9.138;2023-03-25T10:34:36;0.82;;;0.70;;
20084;SDS011;10202;48.474;9.138;2023-03-25T10:37:09;1.58;;;0.75;;
20084;SDS011;10202;48.474;9.138;2023-03-25T10:39:38;3.90;;;0.70;;
20084;SDS011;10202;48.474;9.138;2023-03-25T10:42:14;2.10;;;0.80;;
20084;SDS011;10202;48.474;9.138;2023-03-25T10:44:50;2.67;;;0.85;;
20084;SDS011;10202;48.474;9.138;2023-03-25T10:47:22;3.60;;;0.90;;
20084;SDS011;10202;48.474;9.138;2023-03-25T10:49:53;1.20;;;0.70;;
20084;SDS011;10202;48.474;9.138;2023-03-25T10:52:26;0.85;;;0.60;;
20084;SDS011;10202;48.474;9.138;2023-03-25T10:54:54;4.28;;;0.80;;
20084;SDS011;10202;48.474;9.138;2023-03-25T10:57:22;1.80;;;0.75;;
20084;SDS011;10202;48.474;9.138;2023-03-25T10:59:55;1.60;;;0.77;;
20084;SDS011;10202;48.474;9.138;2023-03-25T11:02:24;0.82;;;0.75;;
20084;SDS011;10202;48.474;9.138;2023-03-25T11:05:02;1.23;;;0.80;;
20084;SDS011;10202;48.474;9.138;2023-03-25T11:07:31;2.65;;;0.70;;
20084;SDS011;10202;48.474;9.138;2023-03-25T11:10:36;1.95;;;0.80;;
20084;SDS011;10202;48.474;9.138;2023-03-25T11:12:59;1.75;;;1.00;;
20084;SDS011;10202;48.474;9.138;2023-03-25T11:15:33;1.85;;;0.90;;
20084;SDS011;10202;48.474;9.138;2023-03-25T11:21:10;1.27;;;0.70;;
20084;SDS011;10202;48.474;9.138;2023-03-25T11:23:47;1.08;;;0.73;;
20084;SDS011;10202;48.474;9.138;2023-03-25T11:28:48;2.10;;;0.70;;
20084;SDS011;10202;48.474;9.138;2023-03-25T11:31:20;0.85;;;0.68;;
20084;SDS011;10202;48.474;9.138;2023-03-25T11:36:39;1.90;;;0.68;;
20084;SDS011;10202;48.474;9.138;2023-03-25T11:39:33;1.15;;;0.70;;
20084;SDS011;10202;48.474;9.138;2023-03-25T11:45:00;1.48;;;0.60;;
20084;SDS011;10202;48.474;9.138;2023-03-25T11:47:33;2.53;;;0.80;;
20084;SDS011;10202;48.474;9.138;2023-03-25T11:50:06;0.85;;;0.60;;
20084;SDS011;10202;48.474;9.138;2023-03-25T11:52:45;1.33;;;0.68;;
20084;SDS011;10202;48.474;9.138;2023-03-25T11:55:23;3.50;;;0.70;;
20084;SDS011;10202;48.474;9.138;2023-03-25T11:57:55;2.00;;;0.70;;
20084;SDS011;10202;48.474;9.138;2023-03-25T12:05:37;0.63;;;0.50;;
20084;SDS011;10202;48.474;9.138;2023-03-25T12:08:13;0.75;;;0.50;;
20084;SDS011;10202;48.474;9.138;2023-03-25T12:19:46;2.65;;;1.40;;
20084;SDS011;10202;48.474;9.138;2023-03-25T12:31:52;4.40;;;0.70;;
20084;SDS011;10202;48.474;9.138;2023-03-25T12:34:39;0.80;;;0.40;;
20084;SDS011;10202;48.474;9.138;2023-03-25T12:43:28;3.22;;;0.60;;
20084;SDS011;10202;48.474;9.138;2023-03-25T12:49:09;0.88;;;0.50;;
20084;SDS011;10202;48.474;9.138;2023-03-25T12:51:56;0.90;;;0.60;;
20084;SDS011;10202;48.474;9.138;2023-03-25T12:57:55;0.73;;;0.50;;
20084;SDS011;10202;48.474;9.138;2023-03-25T13:06:35;2.30;;;0.80;;
20084;SDS011;10202;48.474;9.138;2023-03-25T13:09:29;3.42;;;1.30;;
20084;SDS011;10202;48.474;9.138;2023-03-25T13:12:30;1.95;;;0.73;;
20084;SDS011;10202;48.474;9.138;2023-03-25T13:15:56;1.90;;;0.80;;
20084;SDS011;10202;48.474;9.138;2023-03-25T13:18:24;2.97;;;1.40;;
20084;SDS011;10202;48.474;9.138;2023-03-25T13:21:08;1.98;;;1.17;;
20084;SDS011;10202;48.474;9.138;2023-03-25T13:23:47;1.70;;;1.33;;
20084;SDS011;10202;48.474;9.138;2023-03-25T13:26:25;2.33;;;0.90;;
20084;SDS011;10202;48.474;9.138;2023-03-25T13:28:58;0.85;;;0.70;;
20084;SDS011;10202;48.474;9.138;2023-03-25T13:31:31;3.65;;;1.45;;
20084;SDS011;10202;48.474;9.138;2023-03-25T13:36:43;3.22;;;1.30;;
20084;SDS011;10202;48.474;9.138;2023-03-25T13:45:18;1.42;;;0.60;;
20084;SDS011;10202;48.474;9.138;2023-03-25T13:47:52;0.68;;;0.55;;
20084;SDS011;10202;48.474;9.138;2023-03-25T13:50:42;2.05;;;0.57;;
20084;SDS011;10202;48.474;9.138;2023-03-25T14:01:35;0.50;;;0.50;;
20084;SDS011;10202;48.474;9.138;2023-03-25T14:04:14;2.38;;;0.70;;
20084;SDS011;10202;48.474;9.138;2023-03-25T14:12:56;2.60;;;0.73;;
20084;SDS011;10202;48.474;9.138;2023-03-25T14:15:34;2.60;;;0.70;;
20084;SDS011;10202;48.474;9.138;2023-03-25T14:18:03;2.15;;;0.80;;
20084;SDS011;10202;48.474;9.138;2023-03-25T14:20:32;0.98;;;0.73;;
20084;SDS011;10202;48.474;9.138;2023-03-25T14:23:04;2.03;;;0.73;;
20084;SDS011;10202;48.474;9.138;2023-03-25T14:25:41;1.75;;;0.50;;
20084;SDS011;10202;48.474;9.138;2023-03-25T14:28:11;4.72;;;1.13;;
20084;SDS011;10202;48.474;9.138;2023-03-25T14:31:04;2.08;;;1.02;;
20084;SDS011;10202;48.474;9.138;2023-03-25T14:36:28;2.80;;;1.15;;
20084;SDS011;10202;48.474;9.138;2023-03-25T14:38:57;2.15;;;0.80;;
20084;SDS011;10202;48.474;9.138;2023-03-25T14:41:57;2.15;;;0.63;;
20084;SDS011;10202;48.474;9.138;2023-03-25T14:44:32;1.42;;;0.50;;
20084;SDS011;10202;48.474;9.138;2023-03-25T14:52:21;1.27;;;0.63;;
20084;SDS011;10202;48.474;9.138;2023-03-25T14:54:55;3.03;;;0.90;;
20084;SDS011;10202;48.474;9.138;2023-03-25T14:57:24;2.25;;;0.50;;
20084;SDS011;10202;48.474;9.138;2023-03-25T14:59:59;1.13;;;0.65;;
20084;SDS011;10202;48.474;9.138;2023-03-25T15:02:33;5.00;;;0.88;;
20084;SDS011;10202;48.474;9.138;2023-03-25T15:05:03;1.38;;;0.80;;
20084;SDS011;10202;48.474;9.138;2023-03-25T15:10:24;1.48;;;0.90;;
20084;SDS011;10202;48.474;9.138;2023-03-25T15:13:04;2.47;;;0.70;;
20084;SDS011;10202;48.474;9.138;2023-03-25T15:18:11;3.78;;;0.70;;
20084;SDS011;10202;48.474;9.138;2023-03-25T15:20:42;0.85;;;0.50;;
20084;SDS011;10202;48.474;9.138;2023-03-25T15:25:43;2.53;;;0.93;;
20084;SDS011;10202;48.474;9.138;2023-03-25T15:28:21;2.63;;;0.88;;
20084;SDS011;10202;48.474;9.138;2023-03-25T15:40:30;1.95;;;0.77;;
20084;SDS011;10202;48.474;9.138;2023-03-25T15:46:00;2.85;;;0.80;;
20084;SDS011;10202;48.474;9.138;2023-03-25T15:56:48;0.82;;;0.60;;
20084;SDS011;10202;48.474;9.138;2023-03-25T16:02:24;1.33;;;0.63;;
20084;SDS011;10202;48.474;9.138;2023-03-25T16:05:03;3.15;;;0.70;;
20084;SDS011;10202;48.474;9.138;2023-03-25T16:07:30;2.05;;;0.93;;
20084;SDS011;10202;48.474;9.138;2023-03-25T16:10:04;0.95;;;0.60;;
20084;SDS011;10202;48.474;9.138;2023-03-25T16:13:01;1.45;;;0.80;;
20084;SDS011;10202;48.474;9.138;2023-03-25T16:15:31;2.45;;;0.60;;
20084;SDS011;10202;48.474;9.138;2023-03-25T16:17:59;0.82;;;0.50;;
20084;SDS011;10202;48.474;9.138;2023-03-25T16:20:27;2.53;;;0.80;;
20084;SDS011;10202;48.474;9.138;2023-03-25T16:22:58;1.52;;;0.90;;
20084;SDS011;10202;48.474;9.138;2023-03-25T16:25:32;1.58;;;0.80;;
20084;SDS011;10202;48.474;9.138;2023-03-25T16:28:06;1.83;;;0.93;;
20084;SDS011;10202;48.474;9.138;2023-03-25T16:30:42;1.50;;;0.88;;
20084;SDS011;10202;48.474;9.138;2023-03-25T16:33:24;0.85;;;0.55;;
20084;SDS011;10202;48.474;9.138;2023-03-25T16:35:58;1.98;;;0.77;;
20084;SDS011;10202;48.474;9.138;2023-03-25T16:38:29;1.20;;;0.73;;
20084;SDS011;10202;48.474;9.138;2023-03-25T16:43:36;3.65;;;1.15;;
20084;SDS011;10202;48.474;9.138;2023-03-25T16:46:02;2.83;;;0.90;;
20084;SDS011;10202;48.474;9.138;2023-03-25T16:48:41;1.40;;;0.75;;
20084;SDS011;10202;48.474;9.138;2023-03-25T16:51:18;2.28;;;0.98;;
20084;SDS011;10202;48.474;9.138;2023-03-25T16:53:52;1.25;;;0.90;;
20084;SDS011;10202;48.474;9.138;2023-03-25T17:01:25;3.15;;;0.95;;
20084;SDS011;10202;48.474;9.138;2023-03-25T17:04:04;1.55;;;0.95;;
20084;SDS011;10202;48.474;9.138;2023-03-25T17:06:43;3.17;;;0.90;;
20084;SDS011;10202;48.474;9.138;2023-03-25T17:09:17;0.88;;;0.73;;
20084;SDS011;10202;48.474;9.138;2023-03-25T17:11:58;3.10;;;0.80;;
20084;SDS011;10202;48.474;9.138;2023-03-25T17:14:35;4.78;;;1.20;;
20084;SDS011;10202;48.474;9.138;2023-03-25T17:17:12;2.80;;;1.27;;
20084;SDS011;10202;48.474;9.138;2023-03-25T17:19:49;4.45;;;1.10;;
20084;SDS011;10202;48.474;9.138;2023-03-25T17:25:23;3.65;;;1.20;;
20084;SDS011;10202;48.474;9.138;2023-03-25T17:27:58;3.47;;;1.17;;
20084;SDS011;10202;48.474;9.138;2023-03-25T17:30:40;2.30;;;1.30;;
20084;SDS011;10202;48.474;9.138;2023-03-25T17:33:17;2.80;;;1.60;;
20084;SDS011;10202;48.474;9.138;2023-03-25T17:35:50;2.38;;;1.23;;
20084;SDS011;10202;48.474;9.138;2023-03-25T17:38:24;1.42;;;1.00;;
20084;SDS011;10202;48.474;9.138;2023-03-25T17:41:08;3.65;;;1.30;;
20084;SDS011;10202;48.474;9.138;2023-03-25T17:43:37;3.33;;;1.17;;
20084;SDS011;10202;48.474;9.138;2023-03-25T17:46:19;3.03;;;1.10;;
20084;SDS011;10202;48.474;9.138;2023-03-25T17:48:52;5.82;;;3.33;;
20084;SDS011;10202;48.474;9.138;2023-03-25T17:51:23;3.60;;;2.45;;
20084;SDS011;10202;48.474;9.138;2023-03-25T17:53:54;3.58;;;2.00;;
20084;SDS011;10202;48.474;9.138;2023-03-25T17:56:23;7.45;;;4.55;;
20084;SDS011;10202;48.474;9.138;2023-03-25T17:59:03;4.13;;;1.73;;
20084;SDS011;10202;48.474;9.138;2023-03-25T18:01:41;4.93;;;1.80;;
20084;SDS011;10202;48.474;9.138;2023-03-25T18:04:10;7.30;;;1.75;;
20084;SDS011;10202;48.474;9.138;2023-03-25T18:06:38;6.28;;;2.47;;
20084;SDS011;10202;48.474;9.138;2023-03-25T18:09:22;12.33;;;2.77;;
20084;SDS011;10202;48.474;9.138;2023-03-25T18:11:53;5.47;;;2.42;;
20084;SDS011;10202;48.474;9.138;2023-03-25T18:14:20;5.13;;;1.80;;
20084;SDS011;10202;48.474;9.138;2023-03-25T18:16:48;4.15;;;1.70;;
20084;SDS011;10202;48.474;9.138;2023-03-25T18:19:24;3.88;;;1.60;;
20084;SDS011;10202;48.474;9.138;2023-03-25T18:21:56;5.93;;;1.40;;
20084;SDS011;10202;48.474;9.138;2023-03-25T18:24:25;5.72;;;2.38;;
20084;SDS011;10202;48.474;9.138;2023-03-25T18:26:53;4.35;;;1.90;;
20084;SDS011;10202;48.474;9.138;2023-03-25T18:29:24;2.80;;;1.20;;
20084;SDS011;10202;48.474;9.138;2023-03-25T18:31:53;5.85;;;3.40;;
20084;SDS011;10202;48.474;9.138;2023-03-25T18:34:27;4.32;;;2.25;;
20084;SDS011;10202;48.474;9.138;2023-03-25T18:36:52;3.42;;;1.45;;